Time;durP1;ratioP1;P1;durP2;ratioP2;P2;SDS_P1;SDS_P2;PMS_P1;PMS_P2;Temp;Humidity;BMP_temperature;BMP_pressure;BME280_temperature;BME280_humidity;BME280_pressure;Samples;Min_cycle;Max_cycle;Signal;HPM_P1;HPM_P2
2022/12/07 00:08:33;;;;;;;0.20;0.10;;;9.30;99.90;;;;;;21280896;27;20607;-69
2022/12/07 00:18:39;;;;;;;0.20;0.00;;;9.10;99.90;;;;;;21290090;27;20427;-69
2022/12/07 00:28:46;;;;;;;0.20;0.10;;;8.90;99.90;;;;;;21299147;27;20401;-68
2022/12/07 00:38:51;;;;;;;0.20;0.00;;;8.80;99.90;;;;;;21297380;27;20404;-68
2022/12/07 00:48:55;;;;;;;0.20;0.10;;;8.70;99.90;;;;;;21295768;27;20430;-68
2022/12/07 00:59:02;;;;;;;0.20;0.10;;;8.80;99.90;;;;;;21297171;27;20419;-67
2022/12/07 01:09:06;;;;;;;0.20;0.08;;;8.80;99.90;;;;;;21295209;28;20401;-67
2022/12/07 01:19:11;;;;;;;0.20;0.10;;;8.60;99.90;;;;;;21296547;28;20405;-67
2022/12/07 01:29:15;;;;;;;0.20;0.10;;;8.60;99.90;;;;;;21276538;27;20416;-67
2022/12/07 01:39:20;;;;;;;0.20;0.10;;;8.60;99.90;;;;;;21294470;27;20420;-68
2022/12/07 01:49:29;;;;;;;0.20;0.10;;;8.60;99.90;;;;;;21303715;27;20389;-68
2022/12/07 01:59:35;;;;;;;0.20;0.10;;;8.60;99.90;;;;;;21308948;27;20405;-68
2022/12/07 02:09:39;;;;;;;0.20;0.10;;;8.20;99.90;;;;;;21302287;27;20500;-68
2022/12/07 02:20:12;;;;;;;0.20;0.10;;;8.30;99.90;;;;;;21308999;27;20431;-68
2022/12/07 02:30:20;;;;;;;0.20;0.10;;;8.60;99.90;;;;;;21288322;27;20400;-67
2022/12/07 02:40:28;;;;;;;0.20;0.10;;;8.70;99.90;;;;;;21287894;27;20408;-68
2022/12/07 02:50:34;;;;;;;0.20;0.10;;;8.70;99.90;;;;;;21305966;27;20576;-68
2022/12/07 03:00:49;;;;;;;0.20;0.10;;;8.60;99.90;;;;;;21278662;27;20404;-68
2022/12/07 03:10:58;;;;;;;0.20;0.10;;;8.80;99.90;;;;;;21303879;27;20416;-69
2022/12/07 03:21:09;;;;;;;0.20;0.10;;;8.60;99.90;;;;;;21303001;27;20435;-68
2022/12/07 03:31:19;;;;;;;0.20;0.10;;;8.50;99.90;;;;;;21284329;27;20382;-68
2022/12/07 03:41:26;;;;;;;0.20;0.10;;;8.70;99.90;;;;;;21301958;27;20401;-68
2022/12/07 03:51:39;;;;;;;0.20;0.10;;;8.70;99.90;;;;;;21302175;27;20414;-66
2022/12/07 04:01:44;;;;;;;0.20;0.10;;;8.80;99.90;;;;;;21281632;27;20408;-67
2022/12/07 04:11:49;;;;;;;0.20;0.10;;;8.90;99.90;;;;;;21261403;27;20389;-67
2022/12/07 04:21:53;;;;;;;0.20;0.00;;;8.80;99.90;;;;;;21299446;27;20420;-68
2022/12/07 04:31:58;;;;;;;0.20;0.10;;;9.20;99.90;;;;;;21277945;27;20412;-67
2022/12/07 04:42:02;;;;;;;0.20;0.00;;;9.40;99.90;;;;;;21278638;27;20444;-67
2022/12/07 04:52:08;;;;;;;0.20;0.10;;;9.50;99.90;;;;;;21277501;27;20385;-68
2022/12/07 05:02:11;;;;;;;0.20;0.10;;;9.60;99.90;;;;;;21295080;27;20409;-67
2022/12/07 05:12:17;;;;;;;0.20;0.10;;;9.60;99.90;;;;;;21296742;28;20388;-68
2022/12/07 05:22:21;;;;;;;0.20;0.10;;;9.60;99.90;;;;;;21303627;27;20469;-67
2022/12/07 05:32:26;;;;;;;0.20;0.10;;;9.50;99.90;;;;;;21312978;27;20423;-67
2022/12/07 05:42:30;;;;;;;0.20;0.10;;;9.40;99.90;;;;;;21291962;27;20400;-68
2022/12/07 05:52:35;;;;;;;0.20;0.10;;;9.40;99.90;;;;;;21311794;27;20406;-67
2022/12/07 15:52:53;;;;;;;0.20;0.10;;;15.10;99.90;;;;;;21217239;28;20421;-71
2022/12/07 16:02:57;;;;;;;0.20;0.10;;;14.80;99.90;;;;;;21218101;28;20410;-68
2022/12/07 16:13:03;;;;;;;0.20;0.10;;;14.60;99.90;;;;;;21218696;28;20395;-69
2022/12/07 16:23:07;;;;;;;0.20;0.00;;;14.70;99.90;;;;;;21218224;28;20405;-69
2022/12/07 16:33:12;;;;;;;0.20;0.03;;;14.60;99.90;;;;;;21215179;28;20382;-69
2022/12/07 16:43:16;;;;;;;0.20;0.10;;;14.50;99.90;;;;;;21197076;28;20404;-69
2022/12/07 16:53:22;;;;;;;0.20;0.10;;;14.60;99.90;;;;;;21215885;28;20467;-68
2022/12/07 17:03:26;;;;;;;0.20;0.10;;;14.60;99.90;;;;;;21214537;28;20495;-69
2022/12/07 17:23:53;;;;;;;0.20;0.10;;;14.70;99.90;;;;;;21214045;28;20402;-68
2022/12/07 17:33:58;;;;;;;0.20;0.10;;;14.40;99.90;;;;;;21215046;28;20398;-67
2022/12/07 17:44:02;;;;;;;0.20;0.10;;;14.40;99.90;;;;;;21238999;27;20399;-68
2022/12/07 17:54:10;;;;;;;0.20;0.10;;;13.80;99.90;;;;;;21311410;27;20393;-71
2022/12/07 18:04:14;;;;;;;0.20;0.10;;;13.70;99.90;;;;;;21312065;27;20408;-69
2022/12/07 18:14:20;;;;;;;0.20;0.10;;;13.50;99.90;;;;;;21308934;27;20385;-69
2022/12/07 18:24:23;;;;;;;0.20;0.08;;;13.50;99.90;;;;;;21299973;27;20385;-69
2022/12/07 18:34:29;;;;;;;0.20;0.10;;;13.40;99.90;;;;;;21301445;27;20401;-69
2022/12/07 18:44:33;;;;;;;0.20;0.10;;;13.40;99.90;;;;;;21270922;27;20430;-69
2022/12/07 18:54:38;;;;;;;0.20;0.10;;;13.30;99.90;;;;;;21205683;28;20382;-68
2022/12/07 19:04:42;;;;;;;0.20;0.00;;;13.10;99.90;;;;;;21202836;28;20397;-69
2022/12/07 19:14:47;;;;;;;0.20;0.10;;;13.00;99.90;;;;;;21222583;28;20468;-69
2022/12/07 19:24:53;;;;;;;0.20;0.10;;;13.00;99.90;;;;;;21204443;28;20402;-67
2022/12/07 19:34:58;;;;;;;0.20;0.10;;;13.00;99.90;;;;;;21201165;28;20403;-68
2022/12/07 19:45:02;;;;;;;0.20;0.10;;;12.90;99.90;;;;;;21198524;28;20446;-67
2022/12/07 19:55:08;;;;;;;0.20;0.10;;;13.00;99.90;;;;;;21217541;28;20435;-68
2022/12/07 20:05:12;;;;;;;0.20;0.00;;;12.90;99.90;;;;;;21213250;28;20428;-68
2022/12/07 20:15:17;;;;;;;0.20;0.10;;;12.90;99.90;;;;;;21197311;28;20409;-66
2022/12/07 20:25:21;;;;;;;0.20;0.03;;;12.90;99.90;;;;;;21204734;28;20409;-67
2022/12/07 20:35:26;;;;;;;0.20;0.10;;;13.00;99.90;;;;;;21205244;28;20467;-66
2022/12/07 20:45:30;;;;;;;0.20;0.10;;;12.80;99.90;;;;;;21239899;27;20416;-68
2022/12/07 20:55:37;;;;;;;0.20;0.10;;;12.70;99.90;;;;;;21282275;27;20396;-67
2022/12/07 21:15:58;;;;;;;0.20;0.10;;;12.60;99.90;;;;;;20962135;23;20413;-70
2022/12/07 21:26:08;;;;;;;0.20;0.10;;;12.50;99.90;;;;;;20923711;23;20767;-71
2022/12/07 21:36:16;;;;;;;0.20;0.00;;;12.40;99.90;;;;;;20986941;28;20539;-72
2022/12/07 21:46:22;;;;;;;0.20;0.10;;;12.40;99.90;;;;;;20910826;28;20506;-71
2022/12/07 21:56:36;;;;;;;0.20;0.00;;;12.30;99.90;;;;;;20889769;28;20486;-73
2022/12/07 22:06:40;;;;;;;0.20;0.10;;;12.30;99.90;;;;;;20904226;28;20698;-72
2022/12/07 22:16:45;;;;;;;0.20;0.00;;;12.40;99.90;;;;;;20921320;28;20424;-73
2022/12/07 22:26:49;;;;;;;0.20;0.10;;;12.10;99.90;;;;;;20938008;28;20768;-71
2022/12/07 22:36:54;;;;;;;0.20;0.10;;;12.20;99.90;;;;;;20963599;28;20414;-71
2022/12/07 22:46:58;;;;;;;0.20;0.03;;;12.30;99.90;;;;;;20905312;28;20486;-73
2022/12/07 22:57:04;;;;;;;0.20;0.10;;;12.20;99.90;;;;;;20922500;28;20419;-71
2022/12/07 23:07:08;;;;;;;0.20;0.10;;;12.10;99.90;;;;;;20904464;28;20918;-72
2022/12/07 23:17:13;;;;;;;0.20;0.10;;;12.10;99.90;;;;;;20974898;28;20387;-72
2022/12/07 23:27:17;;;;;;;0.20;0.10;;;12.10;99.90;;;;;;21061767;28;20532;-71
2022/12/07 23:37:22;;;;;;;0.20;0.03;;;11.90;99.90;;;;;;21039360;28;20677;-71
2022/12/07 23:47:26;;;;;;;0.20;0.10;;;11.90;99.90;;;;;;20998735;28;20471;-71
2022/12/07 23:57:32;;;;;;;0.20;0.00;;;12.10;99.90;;;;;;21001497;28;20441;-72
